createdAt,value
2022-11-29T00:04:29.969Z,15.26
2022-11-29T01:03:58.472Z,13.88
2022-11-29T01:06:55.275Z,13.77
2022-11-29T01:09:23.439Z,13.74
2022-11-29T01:11:52.039Z,13.69
2022-11-29T01:14:21.334Z,13.63
2022-11-29T01:17:03.182Z,13.57
2022-11-29T01:19:54.790Z,13.50
2022-11-29T01:22:24.266Z,13.50
2022-11-29T01:24:54.895Z,13.47
2022-11-29T01:27:23.099Z,13.51
2022-11-29T01:38:05.642Z,13.46
2022-11-29T01:40:37.061Z,13.48
2022-11-29T01:43:56.243Z,13.43
2022-11-29T01:46:31.983Z,13.37
2022-11-29T01:49:22.957Z,13.29
2022-11-29T01:52:00.900Z,13.21
2022-11-29T01:54:36.416Z,13.20
2022-11-29T01:57:19.378Z,13.18
2022-11-29T02:03:26.027Z,13.16
2022-11-29T02:06:22.010Z,13.16
2022-11-29T02:08:50.342Z,13.16
2022-11-29T02:11:41.961Z,13.17
2022-11-29T02:14:22.265Z,13.12
2022-11-29T02:16:58.932Z,13.10
2022-11-29T02:19:45.087Z,13.11
2022-11-29T02:22:24.338Z,13.04
2022-11-29T02:25:20.015Z,12.90
2022-11-29T02:27:54.257Z,12.84
2022-11-29T02:30:33.845Z,12.73
2022-11-29T02:33:23.370Z,12.60
2022-11-29T02:36:10.276Z,12.56
2022-11-29T02:39:01.923Z,12.51
2022-11-29T02:41:53.444Z,12.50
2022-11-29T02:44:38.187Z,12.53
2022-11-29T02:47:14.935Z,12.52
2022-11-29T02:49:55.084Z,12.48
2022-11-29T02:52:26.083Z,12.40
2022-11-29T02:55:02.412Z,12.37
2022-11-29T02:57:37.552Z,12.39
2022-11-29T03:00:15.144Z,12.34
2022-11-29T03:03:01.357Z,12.34
2022-11-29T03:05:32.294Z,12.31
2022-11-29T03:08:06.886Z,12.31
2022-11-29T03:10:53.241Z,12.36
2022-11-29T03:13:29.599Z,12.43
2022-11-29T03:16:07.588Z,12.53
2022-11-29T03:18:38.197Z,12.61
2022-11-29T03:21:18.021Z,12.64
2022-11-29T03:23:49.497Z,12.66
2022-11-29T03:26:25.499Z,12.63
2022-11-29T03:29:02.042Z,12.64
2022-11-29T03:31:59.192Z,12.71
2022-11-29T03:34:46.072Z,12.77
2022-11-29T03:37:26.867Z,12.79
2022-11-29T03:40:00.549Z,12.84
2022-11-29T03:42:40.844Z,12.86
2022-11-29T03:45:11.463Z,12.80
2022-11-29T03:47:59.468Z,12.81
2022-11-29T03:50:36.184Z,12.86
2022-11-29T03:53:19.107Z,12.83
2022-11-29T03:55:53.617Z,12.83
2022-11-29T03:58:34.979Z,12.82
2022-11-29T04:01:21.482Z,12.77
2022-11-29T04:04:06.973Z,12.68
2022-11-29T04:06:53.414Z,12.64
2022-11-29T04:09:29.106Z,12.53
2022-11-29T04:12:00.682Z,12.44
2022-11-29T04:14:40.446Z,12.41
2022-11-29T04:17:37.423Z,12.36
2022-11-29T04:20:05.285Z,12.32
2022-11-29T04:22:44.646Z,12.39
2022-11-29T04:25:28.577Z,12.44
2022-11-29T04:28:25.968Z,12.49
2022-11-29T04:30:59.640Z,12.62
2022-11-29T04:33:46.888Z,12.72
2022-11-29T04:36:33.550Z,12.79
2022-11-29T04:39:23.280Z,12.84
2022-11-29T04:42:03.083Z,12.81
2022-11-29T04:44:30.941Z,12.80
2022-11-29T04:47:10.233Z,12.77
2022-11-29T04:49:56.422Z,12.76
2022-11-29T04:52:30.224Z,12.83
2022-11-29T04:55:01.190Z,12.78
2022-11-29T04:57:47.259Z,12.72
2022-11-29T05:00:20.968Z,12.60
2022-11-29T05:02:58.039Z,12.56
2022-11-29T05:05:36.475Z,12.50
2022-11-29T05:08:13.814Z,12.52
2022-11-29T05:11:01.812Z,12.48
2022-11-29T05:13:39.087Z,12.39
2022-11-29T05:16:21.987Z,12.40
2022-11-29T05:19:19.090Z,12.32
2022-11-29T05:21:52.941Z,12.23
2022-11-29T05:24:41.021Z,12.20
2022-11-29T05:27:14.497Z,12.24
2022-11-29T05:30:04.750Z,12.21
2022-11-29T05:32:47.939Z,12.38
2022-11-29T05:35:31.360Z,12.52
2022-11-29T05:38:09.877Z,12.61
2022-11-29T05:40:43.983Z,12.63
2022-11-29T05:43:24.047Z,12.55
2022-11-29T05:46:03.718Z,12.46
2022-11-29T05:48:54.580Z,12.47
2022-11-29T05:51:22.519Z,12.53
2022-11-29T05:53:50.344Z,12.53
2022-11-29T05:56:24.336Z,12.45
2022-11-29T05:59:13.102Z,12.34
2022-11-29T06:01:53.292Z,12.29
2022-11-29T06:04:53.577Z,12.23
2022-11-29T06:07:41.585Z,12.25
2022-11-29T06:10:12.602Z,12.18
2022-11-29T06:12:43.728Z,12.15
2022-11-29T06:15:20.630Z,12.17
2022-11-29T06:18:03.302Z,12.24
2022-11-29T06:20:43.477Z,12.29
2022-11-29T06:23:25.119Z,12.23
2022-11-29T06:26:17.695Z,12.29
2022-11-29T06:28:51.114Z,12.25
2022-11-29T06:31:18.949Z,12.20
2022-11-29T06:33:47.613Z,12.28
2022-11-29T06:36:15.589Z,12.41
2022-11-29T06:38:43.502Z,12.50
2022-11-29T06:41:15.574Z,12.56
2022-11-29T06:43:43.558Z,12.60
2022-11-29T06:46:16.663Z,12.57
2022-11-29T06:48:50.322Z,12.52
2022-11-29T06:51:32.755Z,12.53
2022-11-29T06:54:07.450Z,12.55
2022-11-29T06:56:43.744Z,12.52
2022-11-29T06:59:29.921Z,12.53
2022-11-29T07:02:16.574Z,12.48
2022-11-29T07:04:47.930Z,12.40
2022-11-29T07:07:19.407Z,12.31
2022-11-29T07:09:48.050Z,12.21
2022-11-29T07:12:16.485Z,12.14
2022-11-29T07:14:44.701Z,12.03
2022-11-29T07:17:13.061Z,11.90
2022-11-29T07:19:58.276Z,11.81
2022-11-29T07:22:32.247Z,11.78
2022-11-29T07:25:00.258Z,11.78
2022-11-29T07:27:34.419Z,11.77
2022-11-29T07:30:13.832Z,11.81
2022-11-29T07:32:50.924Z,11.90
2022-11-29T07:35:26.324Z,11.97
2022-11-29T07:38:10.793Z,11.99
2022-11-29T07:41:01.959Z,12.03
2022-11-29T07:43:32.865Z,12.00
2022-11-29T07:46:00.927Z,11.95
2022-11-29T07:48:28.873Z,11.88
2022-11-29T07:50:57.645Z,11.90
2022-11-29T07:53:25.752Z,11.91
2022-11-29T07:55:53.930Z,11.95
2022-11-29T07:58:21.895Z,11.99
2022-11-29T08:00:49.847Z,11.97
2022-11-29T08:03:17.747Z,11.97
2022-11-29T08:05:48.690Z,11.94
2022-11-29T08:08:16.755Z,11.91
2022-11-29T08:10:45.699Z,11.91
2022-11-29T08:13:13.624Z,11.93
2022-11-29T08:15:45.477Z,11.94
2022-11-29T08:18:13.642Z,11.93
2022-11-29T08:20:42.659Z,11.95
2022-11-29T08:23:12.970Z,12.00
2022-11-29T08:25:40.906Z,12.01
2022-11-29T08:28:08.775Z,11.95
2022-11-29T08:30:36.910Z,11.91
2022-11-29T08:33:05.927Z,11.90
2022-11-29T08:35:35.633Z,11.94
2022-11-29T08:38:04.747Z,11.95
2022-11-29T08:40:32.594Z,11.88
2022-11-29T08:43:00.455Z,11.82
2022-11-29T08:45:28.400Z,11.79
2022-11-29T08:47:56.323Z,11.77
2022-11-29T08:50:24.366Z,11.83
2022-11-29T08:53:10.538Z,11.81
2022-11-29T08:55:41.402Z,11.76
2022-11-29T08:58:10.752Z,11.73
2022-11-29T09:00:39.467Z,11.68
2022-11-29T09:03:26.945Z,11.75
2022-11-29T09:05:54.974Z,11.67
2022-11-29T09:08:22.904Z,11.62
2022-11-29T09:10:50.838Z,11.66
2022-11-29T09:13:19.029Z,11.61
2022-11-29T09:15:46.900Z,11.54
2022-11-29T09:18:14.742Z,11.48
2022-11-29T09:20:45.906Z,11.43
2022-11-29T09:23:14.266Z,11.45
2022-11-29T09:25:42.207Z,11.45
2022-11-29T09:28:10.095Z,11.54
2022-11-29T09:30:39.065Z,11.51
2022-11-29T09:33:07.756Z,11.36
2022-11-29T09:35:36.028Z,11.19
2022-11-29T09:38:03.970Z,11.02
2022-11-29T09:40:34.907Z,10.88
2022-11-29T09:43:02.764Z,10.77
2022-11-29T09:45:37.976Z,10.69
2022-11-29T09:48:27.771Z,10.63
2022-11-29T09:51:02.115Z,10.64
2022-11-29T09:53:32.808Z,10.69
2022-11-29T09:56:06.527Z,10.71
2022-11-29T09:58:41.368Z,10.73
2022-11-29T10:01:11.983Z,10.82
2022-11-29T10:03:42.064Z,10.87
2022-11-29T10:06:20.842Z,10.83
2022-11-29T10:09:11.911Z,10.80
2022-11-29T10:11:49.593Z,10.75
2022-11-29T10:14:30.126Z,10.66
2022-11-29T10:17:14.184Z,10.55
2022-11-29T10:19:48.507Z,10.56
2022-11-29T10:22:19.383Z,10.51
2022-11-29T10:24:49.418Z,10.43
2022-11-29T10:27:21.512Z,10.43
2022-11-29T10:29:51.935Z,10.39
2022-11-29T10:32:22.319Z,10.34
2022-11-29T10:34:50.966Z,10.31
2022-11-29T10:37:20.512Z,10.32
2022-11-29T10:39:51.249Z,10.32
2022-11-29T10:42:39.006Z,10.36
2022-11-29T10:45:13.769Z,10.39
2022-11-29T10:47:41.749Z,10.42
2022-11-29T10:50:14.895Z,10.47
2022-11-29T10:52:42.795Z,10.50
2022-11-29T10:55:13.682Z,10.51
2022-11-29T10:58:01.400Z,10.49
2022-11-29T11:00:29.394Z,10.47
2022-11-29T11:02:57.257Z,10.48
2022-11-29T11:05:27.475Z,10.52
2022-11-29T11:07:58.469Z,10.54
2022-11-29T11:10:31.700Z,10.53
2022-11-29T11:13:07.671Z,10.45
2022-11-29T11:15:35.598Z,10.37
2022-11-29T11:18:05.829Z,10.39
2022-11-29T11:20:34.732Z,10.42
2022-11-29T11:23:06.990Z,10.39
2022-11-29T11:25:36.587Z,10.32
2022-11-29T11:28:27.572Z,10.27
2022-11-29T11:30:55.458Z,10.26
2022-11-29T11:33:28.639Z,10.30
2022-11-29T11:36:06.014Z,10.39
2022-11-29T11:38:35.027Z,10.51
2022-11-29T11:41:45.644Z,10.53
2022-11-29T11:44:47.988Z,10.52
2022-11-29T11:47:25.144Z,10.43
2022-11-29T11:50:05.301Z,10.37
2022-11-29T11:52:46.105Z,10.35
2022-11-29T11:55:24.211Z,10.27
2022-11-29T11:58:10.150Z,10.21
2022-11-29T12:01:02.922Z,10.16
2022-11-29T12:03:35.317Z,10.09
2022-11-29T12:06:26.382Z,10.06
2022-11-29T12:08:57.026Z,10.00
2022-11-29T12:11:25.247Z,9.96
2022-11-29T12:13:55.094Z,9.94
2022-11-29T12:16:29.162Z,10.03
2022-11-29T12:19:18.759Z,9.99
2022-11-29T12:21:49.150Z,9.95
2022-11-29T12:24:29.397Z,9.89
2022-11-29T12:27:01.798Z,9.94
2022-11-29T12:29:31.854Z,9.91
2022-11-29T12:32:18.259Z,9.88
2022-11-29T12:34:49.588Z,9.85
2022-11-29T12:37:26.915Z,9.84
2022-11-29T12:40:01.942Z,9.83
2022-11-29T12:42:48.520Z,9.80
2022-11-29T12:45:35.295Z,9.79
2022-11-29T12:48:03.214Z,9.80
2022-11-29T12:50:40.393Z,9.76
2022-11-29T12:53:46.750Z,9.74
2022-11-29T12:56:17.124Z,9.75
2022-11-29T12:58:54.204Z,9.79
2022-11-29T13:01:27.546Z,9.77
2022-11-29T13:03:58.591Z,9.79
2022-11-29T13:06:50.601Z,9.87
2022-11-29T13:09:26.248Z,9.86
2022-11-29T13:11:57.942Z,9.81
2022-11-29T13:14:44.886Z,9.76
2022-11-29T13:17:42.025Z,9.72
2022-11-29T13:20:29.988Z,9.83
2022-11-29T13:23:05.352Z,9.87
2022-11-29T13:25:38.923Z,9.84
2022-11-29T13:28:26.886Z,9.90
2022-11-29T13:30:58.110Z,9.98
2022-11-29T13:33:30.194Z,9.92
2022-11-29T13:35:58.080Z,9.79
2022-11-29T13:38:32.130Z,9.65
2022-11-29T13:41:00.053Z,9.55
2022-11-29T13:43:30.920Z,9.48
2022-11-29T13:46:21.184Z,9.42
2022-11-29T13:48:56.075Z,9.47
2022-11-29T13:51:34.641Z,9.47
2022-11-29T13:54:04.544Z,9.45
2022-11-29T13:56:43.562Z,9.46
2022-11-29T13:59:18.027Z,9.45
2022-11-29T14:01:49.640Z,9.46
2022-11-29T14:04:25.393Z,9.42
2022-11-29T14:07:02.867Z,9.41
2022-11-29T14:09:40.995Z,9.34
2022-11-29T14:12:32.103Z,9.26
2022-11-29T14:15:02.755Z,9.19
2022-11-29T14:17:50.997Z,9.17
2022-11-29T14:20:39.049Z,9.15
2022-11-29T14:23:09.825Z,9.12
2022-11-29T14:26:12.591Z,9.08
2022-11-29T14:28:44.177Z,9.05
2022-11-29T14:31:15.029Z,9.00
2022-11-29T14:33:52.706Z,9.00
2022-11-29T14:36:34.159Z,8.97
2022-11-29T14:39:36.989Z,8.92
2022-11-29T14:42:17.915Z,8.88
2022-11-29T14:44:51.876Z,8.85
2022-11-29T14:47:25.296Z,8.82
2022-11-29T14:49:55.640Z,8.75
2022-11-29T14:52:30.800Z,8.65
2022-11-29T14:55:03.831Z,8.53
2022-11-29T14:57:59.464Z,8.38
2022-11-29T15:00:41.434Z,8.30
2022-11-29T15:03:21.577Z,8.28
2022-11-29T15:05:58.914Z,8.29
2022-11-29T15:08:39.744Z,8.27
2022-11-29T15:11:23.023Z,8.24
2022-11-29T15:14:03.399Z,8.15
2022-11-29T15:16:38.248Z,8.02
2022-11-29T15:19:21.472Z,7.86
2022-11-29T15:22:00.129Z,7.72
2022-11-29T15:24:30.597Z,7.59
2022-11-29T15:27:00.004Z,7.54
2022-11-29T15:29:28.865Z,7.48
2022-11-29T15:32:05.293Z,7.52
2022-11-29T15:34:38.059Z,7.61
2022-11-29T15:37:06.035Z,7.63
2022-11-29T15:39:35.571Z,7.70
2022-11-29T15:42:05.647Z,7.81
2022-11-29T15:44:33.699Z,7.94
2022-11-29T15:47:20.282Z,8.14
2022-11-29T15:49:48.136Z,8.41
2022-11-29T15:52:20.942Z,8.66
2022-11-29T15:54:51.073Z,8.95
2022-11-29T15:57:26.435Z,9.15
2022-11-29T15:59:59.208Z,9.22
2022-11-29T16:02:31.222Z,9.41
2022-11-29T16:05:11.971Z,9.64
2022-11-29T16:07:40.582Z,9.82
2022-11-29T16:10:13.629Z,9.91
2022-11-29T16:12:58.829Z,10.04
2022-11-29T16:15:28.939Z,10.16
2022-11-29T16:17:56.845Z,10.38
2022-11-29T16:20:25.674Z,10.57
2022-11-29T16:23:14.554Z,10.89
2022-11-29T16:26:09.949Z,11.25
2022-11-29T16:28:41.886Z,11.57
2022-11-29T16:31:14.919Z,11.75
2022-11-29T16:33:47.861Z,11.92
2022-11-29T16:36:28.012Z,12.11
2022-11-29T16:39:00.465Z,12.24
2022-11-29T16:41:38.854Z,12.23
2022-11-29T16:44:07.741Z,12.26
2022-11-29T16:46:38.739Z,12.35
2022-11-29T16:49:27.795Z,12.42
2022-11-29T16:51:55.912Z,12.75
2022-11-29T16:54:26.715Z,13.13
2022-11-29T16:56:55.939Z,13.43
2022-11-29T16:59:27.650Z,13.65
2022-11-29T17:01:56.777Z,13.86
2022-11-29T17:04:25.571Z,14.01
2022-11-29T17:06:57.196Z,13.98
2022-11-29T17:09:26.697Z,13.93
2022-11-29T17:11:55.527Z,13.99
2022-11-29T17:14:23.495Z,14.13
2022-11-29T17:16:52.663Z,14.28
2022-11-29T17:19:26.784Z,14.47
2022-11-29T17:21:54.757Z,14.73
2022-11-29T17:24:23.464Z,14.89
2022-11-29T17:26:51.944Z,15.12
2022-11-29T17:29:20.085Z,15.36
2022-11-29T17:31:48.649Z,15.59
2022-11-29T17:34:17.362Z,15.84
2022-11-29T17:36:46.150Z,16.03
2022-11-29T17:39:16.342Z,16.05
2022-11-29T17:41:44.164Z,15.77
2022-11-29T17:44:12.211Z,15.40
2022-11-29T17:46:40.223Z,15.13
2022-11-29T17:49:09.233Z,14.91
2022-11-29T17:51:52.139Z,14.79
2022-11-29T17:54:21.710Z,14.91
2022-11-29T17:56:50.226Z,15.14
2022-11-29T17:59:18.152Z,15.38
2022-11-29T18:01:47.955Z,15.47
2022-11-29T18:04:15.977Z,15.33
2022-11-29T18:06:44.433Z,15.14
2022-11-29T18:09:12.644Z,14.92
2022-11-29T18:11:49.298Z,14.64
2022-11-29T18:14:19.814Z,14.45
2022-11-29T18:16:47.903Z,14.27
2022-11-29T18:19:16.926Z,14.28
2022-11-29T18:21:44.880Z,14.25
2022-11-29T18:24:12.912Z,14.28
2022-11-29T18:26:41.203Z,14.33
2022-11-29T18:29:09.403Z,14.35
2022-11-29T18:31:39.109Z,14.36
2022-11-29T18:34:10.366Z,14.32
2022-11-29T18:36:39.890Z,14.28
2022-11-29T18:39:12.571Z,14.28
2022-11-29T18:41:41.862Z,14.22
2022-11-29T18:44:10.984Z,14.18
2022-11-29T18:46:39.897Z,14.21
2022-11-29T18:49:08.847Z,14.18
2022-11-29T18:51:37.368Z,14.20
2022-11-29T18:54:05.683Z,14.31
2022-11-29T18:56:35.577Z,14.37
2022-11-29T18:59:05.545Z,14.43
2022-11-29T19:01:35.629Z,14.45
2022-11-29T19:04:03.565Z,14.45
2022-11-29T19:06:38.914Z,14.51
2022-11-29T19:09:08.162Z,14.55
2022-11-29T19:11:36.051Z,14.67
2022-11-29T19:14:05.952Z,14.74
2022-11-29T19:16:35.319Z,14.86
2022-11-29T19:19:03.207Z,14.95
2022-11-29T19:21:35.552Z,14.99
2022-11-29T19:24:04.426Z,14.99
2022-11-29T19:26:32.873Z,14.87
2022-11-29T19:29:01.604Z,14.70
2022-11-29T19:31:29.799Z,14.63
2022-11-29T19:33:58.604Z,14.63
2022-11-29T19:36:27.539Z,14.68
2022-11-29T19:38:56.085Z,14.75
2022-11-29T19:41:29.300Z,14.76
2022-11-29T19:43:57.998Z,14.77
2022-11-29T19:46:27.208Z,14.73
2022-11-29T19:48:56.617Z,14.73
2022-11-29T19:51:25.072Z,14.67
2022-11-29T19:53:53.721Z,14.61
2022-11-29T19:56:22.229Z,14.52
2022-11-29T19:58:50.870Z,14.55
2022-11-29T20:01:20.312Z,14.58
2022-11-29T20:03:48.627Z,14.57
2022-11-29T20:06:17.030Z,14.54
2022-11-29T20:08:45.080Z,14.52
2022-11-29T20:11:14.428Z,14.43
2022-11-29T20:13:43.823Z,14.35
2022-11-29T20:16:13.159Z,14.37
2022-11-29T20:18:47.130Z,14.42
2022-11-29T20:21:19.898Z,14.52
2022-11-29T20:23:47.946Z,14.54
2022-11-29T20:26:17.468Z,14.54
2022-11-29T20:28:45.848Z,14.58
2022-11-29T20:31:15.614Z,14.66
2022-11-29T21:27:24.683Z,14.16
2022-11-29T21:29:53.302Z,14.24
2022-11-29T21:32:24.604Z,14.36
2022-11-29T21:34:52.888Z,14.45
2022-11-29T21:37:23.876Z,14.55
2022-11-29T21:39:52.692Z,14.59
2022-11-29T21:42:21.515Z,14.64
2022-11-29T21:44:49.788Z,14.71
2022-11-29T21:47:18.108Z,14.77
2022-11-29T21:49:47.620Z,14.81
2022-11-29T21:52:22.014Z,14.85
2022-11-29T21:54:51.185Z,14.89
2022-11-29T21:57:19.520Z,14.92
2022-11-29T21:59:47.885Z,14.93
2022-11-29T22:02:16.253Z,14.92
2022-11-29T22:04:45.163Z,14.92
2022-11-29T22:07:13.743Z,14.91
2022-11-29T22:09:42.203Z,14.91
2022-11-29T22:12:32.523Z,14.92
2022-11-29T22:14:58.796Z,14.93
2022-11-29T22:17:27.071Z,14.96
2022-11-29T22:19:55.282Z,14.98
2022-11-29T22:22:27.165Z,15.01
2022-11-29T22:24:57.081Z,15.04
2022-11-29T22:27:25.556Z,15.04
2022-11-29T22:29:53.878Z,15.06
2022-11-29T22:32:22.221Z,15.08
2022-11-29T22:34:50.621Z,15.10
2022-11-29T22:37:18.920Z,15.12
2022-11-29T22:39:47.270Z,15.20
2022-11-29T22:42:15.606Z,15.30
2022-11-29T22:44:44.019Z,15.33
2022-11-29T22:47:12.355Z,15.36
2022-11-29T22:49:40.627Z,15.34
2022-11-29T22:52:08.872Z,15.33
2022-11-29T22:54:37.203Z,15.29
2022-11-29T22:57:07.961Z,15.23
2022-11-29T22:59:36.321Z,15.19
2022-11-29T23:02:04.704Z,15.18
2022-11-29T23:04:35.413Z,15.14
2022-11-29T23:07:04.090Z,15.14
2022-11-29T23:09:32.361Z,15.18
2022-11-29T23:12:00.738Z,15.20
2022-11-29T23:14:29.116Z,15.18
2022-11-29T23:17:08.011Z,15.17
2022-11-29T23:19:42.270Z,15.11
2022-11-29T23:22:10.734Z,15.08
2022-11-29T23:24:41.715Z,15.08
2022-11-29T23:27:10.709Z,15.06
2022-11-29T23:29:39.275Z,15.04
2022-11-29T23:32:07.743Z,14.99
2022-11-29T23:34:41.501Z,14.99
2022-11-29T23:37:09.998Z,15.02
2022-11-29T23:40:15.016Z,15.07
2022-11-29T23:42:45.065Z,15.08
2022-11-29T23:48:13.310Z,14.93
2022-11-29T23:51:14.222Z,14.88
2022-11-29T23:53:54.698Z,14.91
